createdAt,value
2024-05-09T00:01:44.581Z,88.60
2024-05-09T00:04:12.846Z,88.70
2024-05-09T00:06:37.867Z,88.60
2024-05-09T00:09:02.814Z,89.00
2024-05-09T00:11:27.824Z,89.20
2024-05-09T00:13:53.734Z,89.10
2024-05-09T00:16:18.681Z,89.00
2024-05-09T00:18:43.647Z,88.80
2024-05-09T00:21:12.830Z,89.00
2024-05-09T00:23:38.286Z,89.00
2024-05-09T00:26:03.351Z,89.10
2024-05-09T00:28:28.373Z,89.40
2024-05-09T00:30:53.287Z,89.20
2024-05-09T00:33:18.487Z,88.90
2024-05-09T00:35:44.030Z,89.00
2024-05-09T00:38:12.368Z,89.10
2024-05-09T00:40:41.728Z,89.20
2024-05-09T00:43:08.381Z,88.90
2024-05-09T00:45:34.140Z,89.20
2024-05-09T00:47:59.622Z,89.80
2024-05-09T00:50:33.789Z,90.10
2024-05-09T00:53:01.909Z,90.10
2024-05-09T00:55:30.573Z,90.00
2024-05-09T00:57:55.878Z,90.00
2024-05-09T01:00:27.311Z,89.60
2024-05-09T01:03:01.104Z,89.50
2024-05-09T01:05:26.201Z,89.50
2024-05-09T01:07:51.220Z,89.90
2024-05-09T01:10:21.237Z,89.90
2024-05-09T01:12:55.542Z,90.30
2024-05-09T01:15:20.473Z,90.60
2024-05-09T01:17:46.128Z,90.80
2024-05-09T01:20:19.848Z,90.70
2024-05-09T01:22:48.661Z,90.90
2024-05-09T01:25:16.524Z,90.60
2024-05-09T01:27:41.411Z,90.40
2024-05-09T01:30:09.576Z,90.10
2024-05-09T01:32:39.717Z,90.30
2024-05-09T01:35:04.908Z,90.20
2024-05-09T01:37:29.859Z,90.20
2024-05-09T01:39:54.886Z,90.10
2024-05-09T01:42:22.501Z,90.00
2024-05-09T01:44:47.529Z,89.90
2024-05-09T01:47:13.120Z,90.10
2024-05-09T01:49:40.221Z,89.70
2024-05-09T01:52:05.429Z,89.30
2024-05-09T01:54:30.648Z,89.60
2024-05-09T01:56:56.034Z,89.70
2024-05-09T01:59:23.593Z,89.70
2024-05-09T02:01:56.660Z,89.40
2024-05-09T02:04:22.982Z,89.50
2024-05-09T02:06:47.985Z,89.80
2024-05-09T02:09:13.162Z,90.70
2024-05-09T02:11:45.846Z,91.00
2024-05-09T02:14:11.172Z,91.60
2024-05-09T02:16:38.927Z,91.90
2024-05-09T02:19:04.327Z,91.80
2024-05-09T02:21:34.107Z,91.60
2024-05-09T02:23:59.038Z,91.60
2024-05-09T02:26:23.985Z,91.50
2024-05-09T02:28:49.380Z,91.50
2024-05-09T02:31:15.304Z,90.90
2024-05-09T02:33:40.843Z,91.30
2024-05-09T02:36:07.072Z,91.10
2024-05-09T02:38:30.021Z,91.40
2024-05-09T02:40:55.559Z,90.70
2024-05-09T02:43:17.997Z,90.70
2024-05-09T02:45:43.177Z,90.60
2024-05-09T02:48:07.482Z,90.40
2024-05-09T02:50:39.130Z,90.30
2024-05-09T02:53:02.585Z,90.20
2024-05-09T02:55:27.553Z,90.30
2024-05-09T02:57:49.946Z,90.30
2024-05-09T03:00:22.542Z,90.40
2024-05-09T03:02:48.772Z,90.50
2024-05-09T03:05:14.482Z,90.40
2024-05-09T03:07:39.467Z,90.30
2024-05-09T03:10:07.393Z,90.00
2024-05-09T03:12:35.814Z,90.10
2024-05-09T03:15:02.110Z,89.80
2024-05-09T03:17:24.768Z,89.90
2024-05-09T03:19:50.515Z,90.00
2024-05-09T03:22:12.882Z,90.00
2024-05-09T03:24:40.640Z,90.20
2024-05-09T03:27:02.972Z,90.30
2024-05-09T03:29:28.059Z,90.60
2024-05-09T03:31:50.550Z,90.40
2024-05-09T03:34:15.568Z,90.40
2024-05-09T03:36:43.756Z,90.50
2024-05-09T03:39:08.688Z,90.40
2024-05-09T03:41:36.448Z,90.50
2024-05-09T03:44:01.483Z,90.10
2024-05-09T03:46:23.865Z,90.30
2024-05-09T03:48:48.942Z,90.70
2024-05-09T03:51:12.561Z,90.40
2024-05-09T03:53:37.611Z,90.10
2024-05-09T03:56:00.150Z,90.60
2024-05-09T03:58:27.857Z,90.40
2024-05-09T04:00:50.372Z,90.60
2024-05-09T04:03:15.802Z,90.60
2024-05-09T04:05:39.833Z,90.10
2024-05-09T04:08:05.433Z,90.40
2024-05-09T04:10:32.889Z,90.40
2024-05-09T04:12:59.530Z,90.60
2024-05-09T04:15:24.810Z,90.30
2024-05-09T04:17:51.604Z,90.30
2024-05-09T04:20:24.597Z,90.40
2024-05-09T04:22:58.847Z,90.40
2024-05-09T04:25:21.703Z,90.70
2024-05-09T04:27:46.629Z,90.60
2024-05-09T04:30:18.430Z,90.70
2024-05-09T04:32:49.479Z,90.40
2024-05-09T04:35:12.053Z,90.30
2024-05-09T04:37:37.543Z,90.70
2024-05-09T04:40:00.757Z,90.70
2024-05-09T04:42:26.244Z,90.90
2024-05-09T04:44:49.628Z,90.80
2024-05-09T04:47:15.005Z,90.50
2024-05-09T04:49:42.416Z,90.40
2024-05-09T04:52:08.886Z,90.30
2024-05-09T04:54:36.236Z,90.40
2024-05-09T04:57:02.010Z,90.60
2024-05-09T04:59:24.667Z,91.00
2024-05-09T05:01:51.887Z,91.00
2024-05-09T05:04:14.416Z,90.90
2024-05-09T05:06:42.192Z,91.00
2024-05-09T05:09:04.676Z,91.10
2024-05-09T05:11:30.314Z,90.80
2024-05-09T05:13:52.864Z,90.80
2024-05-09T05:16:19.585Z,90.80
2024-05-09T05:18:44.474Z,90.80
2024-05-09T05:21:09.916Z,90.70
2024-05-09T05:23:35.547Z,90.50
2024-05-09T05:26:01.630Z,90.10
2024-05-09T05:28:24.177Z,90.50
2024-05-09T05:30:50.073Z,90.90
2024-05-09T05:33:15.021Z,90.90
2024-05-09T05:35:40.715Z,90.90
2024-05-09T05:38:03.411Z,90.60
2024-05-09T05:40:36.440Z,90.30
2024-05-09T05:43:00.619Z,90.30
2024-05-09T05:45:26.676Z,90.50
2024-05-09T05:47:49.258Z,89.90
2024-05-09T05:50:23.818Z,89.80
2024-05-09T05:52:50.169Z,89.50
2024-05-09T05:55:15.302Z,89.70
2024-05-09T05:57:41.794Z,89.80
2024-05-09T06:00:09.765Z,89.80
2024-05-09T06:02:36.178Z,90.30
2024-05-09T06:05:01.482Z,89.90
2024-05-09T06:07:23.905Z,89.10
2024-05-09T06:09:50.427Z,89.50
2024-05-09T06:12:13.294Z,89.50
2024-05-09T06:14:41.517Z,89.30
2024-05-09T06:17:04.390Z,89.70
2024-05-09T06:19:29.442Z,89.30
2024-05-09T06:21:52.946Z,89.10
2024-05-09T06:24:17.910Z,88.30
2024-05-09T06:26:42.068Z,88.30
2024-05-09T06:29:08.051Z,86.80
2024-05-09T06:31:33.055Z,87.40
2024-05-09T06:33:58.308Z,86.60
2024-05-09T06:36:20.766Z,88.00
2024-05-09T06:38:45.802Z,86.90
2024-05-09T06:41:08.337Z,87.10
2024-05-09T06:43:33.562Z,86.10
2024-05-09T06:45:57.892Z,84.00
2024-05-09T06:48:25.592Z,83.60
2024-05-09T06:50:48.527Z,83.50
2024-05-09T06:53:17.805Z,82.70
2024-05-09T06:55:40.538Z,82.40
2024-05-09T06:58:09.013Z,81.80
2024-05-09T07:00:38.546Z,82.50
2024-05-09T07:03:11.443Z,81.70
2024-05-09T07:05:37.673Z,82.90
2024-05-09T07:08:03.438Z,82.10
2024-05-09T07:10:32.751Z,81.40
2024-05-09T07:13:00.375Z,83.10
2024-05-09T07:15:22.715Z,80.60
2024-05-09T07:17:48.731Z,78.30
2024-05-09T07:20:16.580Z,81.90
2024-05-09T07:22:51.020Z,82.90
2024-05-09T07:25:13.555Z,81.90
2024-05-09T07:27:38.534Z,80.70
2024-05-09T07:30:01.398Z,81.20
2024-05-09T07:32:26.562Z,80.90
2024-05-09T07:34:49.013Z,81.60
2024-05-09T07:37:16.153Z,81.10
2024-05-09T07:39:42.671Z,78.60
2024-05-09T07:42:08.147Z,78.90
2024-05-09T07:44:31.002Z,78.30
2024-05-09T07:48:14.009Z,80.00
2024-05-09T07:54:33.184Z,78.10
2024-05-09T07:57:00.997Z,79.40
2024-05-09T07:59:23.417Z,77.50
2024-05-09T08:01:48.482Z,76.70
2024-05-09T08:04:11.116Z,75.60
2024-05-09T08:06:36.317Z,77.00
2024-05-09T08:09:02.781Z,77.50
2024-05-09T08:11:30.836Z,76.80
2024-05-09T08:13:55.799Z,76.20
2024-05-09T08:16:21.003Z,74.30
2024-05-09T08:18:44.461Z,76.70
2024-05-09T08:21:10.446Z,75.20
2024-05-09T08:23:32.867Z,77.00
2024-05-09T08:25:57.895Z,76.60
2024-05-09T08:28:20.539Z,76.80
2024-05-09T08:30:49.511Z,77.40
2024-05-09T08:33:12.385Z,77.90
2024-05-09T08:35:37.648Z,77.30
2024-05-09T08:38:02.243Z,77.70
2024-05-09T08:40:33.687Z,78.10
2024-05-09T08:43:00.356Z,76.60
2024-05-09T08:45:25.756Z,72.00
2024-05-09T08:47:52.519Z,74.60
2024-05-09T08:50:29.119Z,76.70
2024-05-09T08:52:58.702Z,77.10
2024-05-09T08:55:25.512Z,73.90
2024-05-09T08:57:51.279Z,73.30
2024-05-09T09:00:21.419Z,77.50
2024-05-09T09:02:54.995Z,74.00
2024-05-09T09:05:17.982Z,72.30
2024-05-09T09:07:45.468Z,73.80
2024-05-09T09:10:08.835Z,74.00
2024-05-09T09:12:33.846Z,73.70
2024-05-09T09:14:56.470Z,72.10
2024-05-09T09:17:22.829Z,71.60
2024-05-09T09:19:47.988Z,70.70
2024-05-09T09:22:14.184Z,71.60
2024-05-09T09:24:37.523Z,74.30
2024-05-09T09:27:02.754Z,73.10
2024-05-09T09:29:25.534Z,70.80
2024-05-09T09:32:01.210Z,69.20
2024-05-09T09:34:28.064Z,68.80
2024-05-09T09:37:01.255Z,70.00
2024-05-09T09:39:28.022Z,71.00
2024-05-09T09:41:54.577Z,72.30
2024-05-09T09:44:19.485Z,71.40
2024-05-09T09:46:44.903Z,68.80
2024-05-09T09:49:08.858Z,66.50
2024-05-09T09:51:35.845Z,64.30
2024-05-09T09:54:03.257Z,62.80
2024-05-09T09:56:30.518Z,60.80
2024-05-09T09:58:54.773Z,63.70
2024-05-09T10:01:19.990Z,61.50
2024-05-09T10:03:42.845Z,63.20
2024-05-09T10:06:09.578Z,62.30
2024-05-09T10:08:32.161Z,61.00
2024-05-09T10:10:59.974Z,62.20
2024-05-09T10:13:33.324Z,59.50
2024-05-09T10:15:59.258Z,62.80
2024-05-09T10:18:27.855Z,67.40
2024-05-09T10:20:54.577Z,68.30
2024-05-09T10:23:25.468Z,67.00
2024-05-09T10:26:01.253Z,63.80
2024-05-09T10:28:26.919Z,64.10
2024-05-09T10:31:05.042Z,64.40
2024-05-09T10:33:40.035Z,64.40
2024-05-09T10:36:07.682Z,65.50
2024-05-09T10:38:31.182Z,67.10
2024-05-09T10:41:01.742Z,61.60
2024-05-09T10:43:25.829Z,62.10
2024-05-09T10:45:51.071Z,61.20
2024-05-09T10:48:13.580Z,64.50
2024-05-09T10:50:43.655Z,65.20
2024-05-09T10:53:06.084Z,63.60
2024-05-09T10:55:31.057Z,64.10
2024-05-09T10:57:56.982Z,60.30
2024-05-09T11:00:27.816Z,59.80
2024-05-09T11:02:56.460Z,66.00
2024-05-09T11:05:22.978Z,63.10
2024-05-09T11:07:45.609Z,61.00
2024-05-09T11:10:14.546Z,60.40
2024-05-09T11:12:37.247Z,57.60
2024-05-09T11:15:05.770Z,60.10
2024-05-09T11:17:28.245Z,52.10
2024-05-09T11:19:53.626Z,55.30
2024-05-09T11:22:16.177Z,58.80
2024-05-09T11:24:41.457Z,54.80
2024-05-09T11:27:06.729Z,54.70
2024-05-09T11:29:41.431Z,54.30
2024-05-09T11:32:07.590Z,57.50
2024-05-09T11:34:32.700Z,57.20
2024-05-09T11:36:55.420Z,56.00
2024-05-09T11:39:20.731Z,62.70
2024-05-09T11:41:43.137Z,55.90
2024-05-09T11:44:08.845Z,56.10
2024-05-09T11:46:31.697Z,60.70
2024-05-09T11:48:59.590Z,58.90
2024-05-09T11:51:22.278Z,59.40
2024-05-09T11:53:47.239Z,58.30
2024-05-09T11:56:11.844Z,49.70
2024-05-09T11:58:39.410Z,50.20
2024-05-09T12:01:02.233Z,52.40
2024-05-09T12:03:27.582Z,48.10
2024-05-09T12:05:56.349Z,50.70
2024-05-09T12:08:21.767Z,55.60
2024-05-09T12:10:44.209Z,56.20
2024-05-09T12:13:10.453Z,52.80
2024-05-09T12:15:33.885Z,55.70
2024-05-09T12:18:01.694Z,55.10
2024-05-09T12:20:34.790Z,54.30
2024-05-09T12:23:05.475Z,54.80
2024-05-09T12:25:29.175Z,53.20
2024-05-09T12:27:55.817Z,50.30
2024-05-09T12:30:28.833Z,51.70
2024-05-09T12:33:01.228Z,53.30
2024-05-09T12:35:25.737Z,53.40
2024-05-09T12:37:51.281Z,53.60
2024-05-09T12:40:23.168Z,51.90
2024-05-09T12:42:56.518Z,53.80
2024-05-09T12:45:18.779Z,53.30
2024-05-09T12:47:43.895Z,57.70
2024-05-09T12:50:13.444Z,55.70
2024-05-09T12:52:43.663Z,55.90
2024-05-09T12:55:07.257Z,57.60
2024-05-09T12:57:35.100Z,58.20
2024-05-09T12:59:57.455Z,56.00
2024-05-09T13:02:22.958Z,55.50
2024-05-09T13:04:45.644Z,56.40
2024-05-09T13:07:11.841Z,48.20
2024-05-09T13:09:34.535Z,49.20
2024-05-09T13:11:59.769Z,51.10
2024-05-09T13:14:26.233Z,53.50
2024-05-09T13:16:51.754Z,49.50
2024-05-09T13:19:14.323Z,52.30
2024-05-09T13:21:39.363Z,49.90
2024-05-09T13:24:01.755Z,50.90
2024-05-09T13:26:26.793Z,51.20
2024-05-09T13:28:49.144Z,50.20
2024-05-09T13:31:16.877Z,49.10
2024-05-09T13:33:39.411Z,53.60
2024-05-09T13:36:04.876Z,54.20
2024-05-09T13:38:27.997Z,54.20
2024-05-09T13:40:53.089Z,49.60
2024-05-09T13:43:17.631Z,50.30
2024-05-09T13:45:43.232Z,52.50
2024-05-09T13:48:10.359Z,49.40
2024-05-09T13:50:36.974Z,50.60
2024-05-09T13:52:59.664Z,52.00
2024-05-09T13:55:24.858Z,51.30
2024-05-09T13:57:47.340Z,54.20
2024-05-09T14:00:27.095Z,52.40
2024-05-09T14:02:56.058Z,52.20
2024-05-09T14:05:23.981Z,51.30
2024-05-09T14:07:47.135Z,51.50
2024-05-09T14:10:19.928Z,51.90
2024-05-09T14:12:48.245Z,53.90
2024-05-09T14:15:13.254Z,56.40
2024-05-09T14:17:35.793Z,53.10
2024-05-09T14:20:00.838Z,54.00
2024-05-09T14:22:26.888Z,53.10
2024-05-09T14:24:51.893Z,53.90
2024-05-09T14:27:14.810Z,53.10
2024-05-09T14:29:40.369Z,55.00
2024-05-09T14:32:03.724Z,52.10
2024-05-09T14:34:28.988Z,49.60
2024-05-09T14:36:51.718Z,49.50
2024-05-09T14:39:19.314Z,49.50
2024-05-09T14:41:41.739Z,54.80
2024-05-09T14:44:07.487Z,53.10
2024-05-09T14:46:29.848Z,52.70
2024-05-09T14:48:55.316Z,51.90
2024-05-09T14:51:17.802Z,52.00
2024-05-09T14:53:43.932Z,51.10
2024-05-09T14:56:09.828Z,52.60
2024-05-09T14:58:35.919Z,55.20
2024-05-09T15:00:58.428Z,53.60
2024-05-09T15:03:23.823Z,55.40
2024-05-09T15:05:47.184Z,54.40
2024-05-09T15:08:12.414Z,57.90
2024-05-09T15:10:37.095Z,55.30
2024-05-09T15:13:07.134Z,53.00
2024-05-09T15:15:31.516Z,55.80
2024-05-09T15:17:58.309Z,55.20
2024-05-09T15:20:27.904Z,50.70
2024-05-09T15:22:59.671Z,52.30
2024-05-09T15:25:22.230Z,52.40
2024-05-09T15:27:47.487Z,55.10
2024-05-09T15:30:13.285Z,53.60
2024-05-09T15:32:40.627Z,55.80
2024-05-09T15:35:03.068Z,56.40
2024-05-09T15:37:28.085Z,54.80
2024-05-09T15:39:50.709Z,54.80
2024-05-09T15:42:15.756Z,53.70
2024-05-09T15:44:38.177Z,54.50
2024-05-09T15:47:06.040Z,58.60
2024-05-09T15:49:31.819Z,54.10
2024-05-09T15:51:54.458Z,51.60
2024-05-09T15:54:21.553Z,56.30
2024-05-09T15:56:48.844Z,51.20
2024-05-09T15:59:14.767Z,50.40
2024-05-09T16:01:37.195Z,53.80
2024-05-09T16:04:05.397Z,54.80
2024-05-09T16:06:28.082Z,52.70
2024-05-09T16:08:53.058Z,51.40
2024-05-09T16:11:17.701Z,52.80
2024-05-09T16:13:42.669Z,52.00
2024-05-09T16:16:06.087Z,51.50
2024-05-09T16:18:31.069Z,53.00
2024-05-09T16:21:00.453Z,54.90
2024-05-09T16:23:25.543Z,53.70
2024-05-09T16:25:48.566Z,54.00
2024-05-09T16:28:14.447Z,56.80
2024-05-09T16:30:37.113Z,56.10
2024-05-09T16:33:02.434Z,52.90
2024-05-09T16:35:25.069Z,53.90
2024-05-09T16:37:52.710Z,55.40
2024-05-09T16:40:24.441Z,54.00
2024-05-09T16:42:55.175Z,53.20
2024-05-09T16:45:17.508Z,52.30
2024-05-09T16:47:42.727Z,54.60
2024-05-09T16:50:08.620Z,53.00
2024-05-09T16:52:33.958Z,55.50
2024-05-09T16:54:59.011Z,54.90
2024-05-09T16:57:24.058Z,54.10
2024-05-09T16:59:46.448Z,58.60
2024-05-09T17:02:11.988Z,55.10
2024-05-09T17:04:34.749Z,58.50
2024-05-09T17:06:59.972Z,57.70
2024-05-09T17:09:22.970Z,54.50
2024-05-09T17:11:50.601Z,54.40
2024-05-09T17:14:17.152Z,55.20
2024-05-09T17:16:42.456Z,57.60
2024-05-09T17:19:05.189Z,59.50
2024-05-09T17:21:30.241Z,53.00
2024-05-09T17:23:54.397Z,56.60
2024-05-09T17:26:20.192Z,58.10
2024-05-09T17:28:45.213Z,56.30
2024-05-09T17:31:10.499Z,57.90
2024-05-09T17:33:33.068Z,56.90
2024-05-09T17:35:58.535Z,56.50
2024-05-09T17:38:23.295Z,56.50
2024-05-09T17:40:48.998Z,59.50
2024-05-09T17:43:11.574Z,58.10
2024-05-09T17:45:40.839Z,59.80
2024-05-09T17:48:04.906Z,59.10
2024-05-09T17:50:35.362Z,58.20
2024-05-09T17:53:00.001Z,60.50
2024-05-09T17:55:25.180Z,60.70
2024-05-09T17:57:47.747Z,62.80
2024-05-09T18:00:17.428Z,62.90
2024-05-09T18:02:46.146Z,63.10
2024-05-09T18:05:11.449Z,62.10
2024-05-09T18:07:33.885Z,62.70
2024-05-09T18:09:59.852Z,62.10
2024-05-09T18:12:22.214Z,61.60
2024-05-09T18:14:47.176Z,62.30
2024-05-09T18:17:10.606Z,62.70
2024-05-09T18:19:39.337Z,62.30
2024-05-09T18:22:01.820Z,62.80
2024-05-09T18:24:27.168Z,63.10
2024-05-09T18:26:50.698Z,62.80
2024-05-09T18:29:19.974Z,63.30
2024-05-09T18:31:46.607Z,63.60
2024-05-09T18:34:09.200Z,64.90
2024-05-09T18:36:37.003Z,63.80
2024-05-09T18:38:59.694Z,63.10
2024-05-09T18:41:24.746Z,64.00
2024-05-09T18:43:50.384Z,65.30
2024-05-09T18:46:16.646Z,65.10
2024-05-09T18:48:39.197Z,65.00
2024-05-09T18:51:05.505Z,65.20
2024-05-09T18:53:30.584Z,65.30
2024-05-09T18:55:55.621Z,65.90
2024-05-09T18:58:18.246Z,67.30
2024-05-09T19:00:46.017Z,66.30
2024-05-09T19:03:13.069Z,66.80
2024-05-09T19:05:41.309Z,67.90
2024-05-09T19:08:04.642Z,67.60
2024-05-09T19:10:34.925Z,68.50
2024-05-09T19:12:58.446Z,69.00
2024-05-09T19:15:26.420Z,68.30
2024-05-09T19:17:50.814Z,68.50
2024-05-09T19:20:24.965Z,69.80
2024-05-09T19:22:51.334Z,69.20
2024-05-09T19:25:16.471Z,70.30
2024-05-09T19:27:42.358Z,70.30
2024-05-09T19:30:17.619Z,70.20
2024-05-09T19:32:47.930Z,70.60
2024-05-09T19:35:12.947Z,71.20
2024-05-09T19:37:35.316Z,71.70
2024-05-09T19:40:01.204Z,71.40
2024-05-09T19:42:24.253Z,72.40
2024-05-09T19:44:52.087Z,73.30
2024-05-09T19:47:14.583Z,74.00
2024-05-09T19:49:40.568Z,74.20
2024-05-09T19:52:03.578Z,73.30
2024-05-09T19:54:28.594Z,74.50
2024-05-09T19:56:51.157Z,74.70
2024-05-09T19:59:16.174Z,74.40
2024-05-09T20:01:41.313Z,74.80
2024-05-09T20:04:06.943Z,74.80
2024-05-09T20:06:30.744Z,74.50
2024-05-09T20:08:58.175Z,74.50
2024-05-09T20:11:21.139Z,74.70
2024-05-09T20:13:47.325Z,75.20
2024-05-09T20:16:09.752Z,75.70
2024-05-09T20:18:37.450Z,76.40
2024-05-09T20:21:00.116Z,76.30
2024-05-09T20:23:47.447Z,76.80
2024-05-09T20:26:09.887Z,77.40
2024-05-09T20:28:35.622Z,77.40
2024-05-09T20:30:58.211Z,77.30
2024-05-09T20:33:23.398Z,77.80
2024-05-09T20:35:48.379Z,77.70
2024-05-09T20:38:13.321Z,77.80
2024-05-09T20:40:38.490Z,77.70
2024-05-09T20:43:06.202Z,77.70
2024-05-09T20:45:29.050Z,78.00
2024-05-09T20:47:54.373Z,78.10
2024-05-09T20:50:27.418Z,77.80
2024-05-09T20:53:00.717Z,78.60
2024-05-09T20:55:23.146Z,78.40
2024-05-09T20:57:48.380Z,79.10
2024-05-09T21:00:18.631Z,79.30
2024-05-09T21:02:48.005Z,78.80
2024-05-09T21:05:10.852Z,78.90
2024-05-09T21:07:36.745Z,78.70
2024-05-09T21:10:01.812Z,78.70
2024-05-09T21:12:27.103Z,79.10
2024-05-09T21:14:49.492Z,79.80
2024-05-09T21:17:15.248Z,80.20
2024-05-09T21:19:37.616Z,79.80
2024-05-09T21:22:03.570Z,79.90
2024-05-09T21:24:25.922Z,80.50
2024-05-09T21:26:54.170Z,80.40
2024-05-09T21:29:16.502Z,80.60
2024-05-09T21:31:42.025Z,80.30
2024-05-09T21:34:05.207Z,80.80
2024-05-09T21:36:30.318Z,79.70
2024-05-09T21:38:52.656Z,80.10
2024-05-09T21:41:17.621Z,80.80
2024-05-09T21:43:43.449Z,80.60
2024-05-09T21:46:09.212Z,81.10
2024-05-09T21:48:33.495Z,80.90
2024-05-09T21:50:58.554Z,81.10
2024-05-09T21:53:20.937Z,80.80
2024-05-09T21:55:45.973Z,81.20
2024-05-09T21:58:08.455Z,81.10
2024-05-09T22:00:39.381Z,81.20
2024-05-09T22:03:02.409Z,81.40
2024-05-09T22:05:28.850Z,80.90
2024-05-09T22:07:51.490Z,80.80
2024-05-09T22:10:25.366Z,80.60
2024-05-09T22:12:49.463Z,80.70
2024-05-09T22:15:14.487Z,81.20
2024-05-09T22:17:42.293Z,82.20
2024-05-09T22:20:17.866Z,81.60
2024-05-09T22:22:45.372Z,81.80
2024-05-09T22:25:10.626Z,81.50
2024-05-09T22:27:33.738Z,81.30
2024-05-09T22:29:58.797Z,81.50
2024-05-09T22:32:21.251Z,81.00
2024-05-09T22:34:49.150Z,81.10
2024-05-09T22:37:11.725Z,81.20
2024-05-09T22:39:37.649Z,81.40
2024-05-09T22:42:00.046Z,81.50
2024-05-09T22:44:25.553Z,80.80
2024-05-09T22:46:47.865Z,81.00
2024-05-09T22:49:12.913Z,80.90
2024-05-09T22:51:38.350Z,80.50
2024-05-09T22:54:04.038Z,81.20
2024-05-09T22:56:31.444Z,81.80
2024-05-09T22:58:57.362Z,82.10
2024-05-09T23:01:47.291Z,81.90
2024-05-09T23:04:12.405Z,82.50
2024-05-09T23:06:40.371Z,82.60
2024-05-09T23:09:06.360Z,82.40
2024-05-09T23:11:29.837Z,82.90
2024-05-09T23:13:55.535Z,82.70
2024-05-09T23:16:17.947Z,83.30
2024-05-09T23:18:43.138Z,83.90
2024-05-09T23:21:06.435Z,83.80
2024-05-09T23:23:34.222Z,84.10
2024-05-09T23:25:57.368Z,84.30
2024-05-09T23:28:22.406Z,84.30
2024-05-09T23:30:44.933Z,84.70
2024-05-09T23:33:10.608Z,85.10
2024-05-09T23:35:34.044Z,85.50
2024-05-09T23:37:59.034Z,85.60
2024-05-09T23:40:30.136Z,85.40
2024-05-09T23:43:02.117Z,85.60
2024-05-09T23:45:24.566Z,85.90
2024-05-09T23:47:50.277Z,85.80
2024-05-09T23:50:17.062Z,85.40
2024-05-09T23:52:48.683Z,84.40
2024-05-09T23:55:11.084Z,85.30
2024-05-09T23:57:38.829Z,85.40
